Portada
METAR-TAF:

METAR-TAF

Aeroports :

St. George, Alaska, Estats Units d'Amèrica

latitud: 56-34-43N, longitud: 169-39-41W, altitud: 38 m

Observació

L'informe es va fer fa 50 minuts, a les 00:53 UTC
Vent 15 kt del Est
Temperatura 13°C
Humitat 77%
Pressió 1013 hPa
Visibilitat: 16.1 km
Cel cobert a una alçada de 3000 ft

METAR: PAPB 150053Z AUTO 10015KT 10SM OVC030 13/09 A2991 RMK AO2 SLP117 T01330089 TSNO

Hora: 17:43 (01:43 UTC)


TAF: manca

Observacions i pronòstics meteorològics de més de 4000 aeroports (METAR i TAF).

Les estacions disponibles són els punts grocs i vermells al mapa.

Posi el ratolí al punt desitjat per veure el nom de l'estació.

Feu clic per veure les observacions i els pronòstics meteorològics.

Per canviar el mapa: feu clic els botons verds amb una creu de color negre per apropar; al botó verd amb un guió per allunyar la imatge; o en les fletxes verdes per a mapes adjacents.


METAR-TAF: